createdAt,value
2022-08-25T03:47:58.079Z,17.40
2022-08-25T03:50:25.276Z,17.30
2022-08-25T03:52:56.546Z,17.40
2022-08-25T03:55:25.245Z,17.30
2022-08-25T03:57:54.411Z,17.30
2022-08-25T04:00:22.781Z,17.30
2022-08-25T04:02:49.693Z,17.30
2022-08-25T04:05:16.633Z,17.20
2022-08-25T04:07:43.452Z,17.30
2022-08-25T04:10:11.265Z,17.20
2022-08-25T04:12:38.594Z,17.20
2022-08-25T04:15:07.654Z,17.20
2022-08-25T04:17:38.099Z,17.20
2022-08-25T04:20:06.940Z,17.20
2022-08-25T04:22:33.724Z,17.10
2022-08-25T04:25:06.178Z,17.10
2022-08-25T04:27:33.012Z,17.00
2022-08-25T04:29:59.912Z,17.00
2022-08-25T04:32:26.759Z,17.00
2022-08-25T04:34:53.587Z,16.90
2022-08-25T04:37:20.342Z,16.70
2022-08-25T04:39:47.130Z,16.70
2022-08-25T04:42:13.956Z,16.70
2022-08-25T04:44:41.726Z,16.70
2022-08-25T04:47:08.475Z,16.70
2022-08-25T04:49:37.096Z,16.70
2022-08-25T04:52:04.239Z,16.70
2022-08-25T04:54:31.136Z,16.70
2022-08-25T04:57:04.501Z,16.70
2022-08-25T04:59:31.365Z,16.80
2022-08-25T05:02:02.458Z,16.80
2022-08-25T05:04:30.187Z,16.80
2022-08-25T05:06:57.637Z,16.80
2022-08-25T05:09:25.497Z,16.90
2022-08-25T05:11:53.457Z,16.90
2022-08-25T05:14:25.115Z,16.90
2022-08-25T05:16:53.675Z,17.00
2022-08-25T05:19:20.436Z,17.00
2022-08-25T05:21:47.218Z,17.00
2022-08-25T05:24:13.979Z,17.10
2022-08-25T05:26:40.754Z,17.10
2022-08-25T05:29:07.647Z,17.10
2022-08-25T05:31:39.558Z,17.20
2022-08-25T05:34:09.145Z,17.20
2022-08-25T05:36:35.940Z,17.20
2022-08-25T05:39:04.168Z,17.20
2022-08-25T05:41:31.571Z,17.20
2022-08-25T05:43:58.993Z,17.30
2022-08-25T05:46:26.005Z,17.30
2022-08-25T05:48:54.112Z,17.40
2022-08-25T05:51:21.398Z,17.50
2022-08-25T05:53:50.713Z,17.50
2022-08-25T05:56:18.364Z,17.60
2022-08-25T05:58:46.178Z,17.60
2022-08-25T06:01:45.341Z,17.70
2022-08-25T06:04:13.636Z,17.80
2022-08-25T06:06:40.686Z,17.90
2022-08-25T06:09:09.591Z,17.90
2022-08-25T06:11:40.998Z,18.00
2022-08-25T06:14:09.851Z,18.20
2022-08-25T06:16:38.778Z,18.20
2022-08-25T06:19:07.228Z,18.40
2022-08-25T06:21:34.068Z,18.40
2022-08-25T06:24:01.905Z,18.50
2022-08-25T06:26:28.679Z,18.50
2022-08-25T06:28:55.382Z,18.60
2022-08-25T06:31:22.652Z,18.70
2022-08-25T06:33:50.296Z,18.80
2022-08-25T06:36:17.599Z,18.90
2022-08-25T06:38:44.694Z,19.00
2022-08-25T06:41:12.583Z,19.00
2022-08-25T06:43:44.972Z,19.10
2022-08-25T06:46:18.503Z,19.20
2022-08-25T06:48:45.360Z,19.30
2022-08-25T06:51:16.418Z,19.40
2022-08-25T06:53:44.956Z,19.50
2022-08-25T06:56:12.212Z,19.60
2022-08-25T06:58:39.106Z,19.70
2022-08-25T07:01:19.714Z,19.80
2022-08-25T07:03:48.006Z,20.00
2022-08-25T07:06:18.250Z,20.20
2022-08-25T07:08:46.590Z,20.20
2022-08-25T07:11:17.535Z,20.30
2022-08-25T07:13:45.376Z,20.40
2022-08-25T07:16:12.951Z,20.50
2022-08-25T07:18:39.834Z,20.60
2022-08-25T07:21:08.808Z,20.70
2022-08-25T07:23:36.966Z,20.80
2022-08-25T07:26:35.710Z,20.90
2022-08-25T07:29:06.668Z,21.00
2022-08-25T07:31:34.410Z,21.10
2022-08-25T07:34:20.022Z,21.10
2022-08-25T07:36:47.010Z,21.20
2022-08-25T07:39:13.789Z,21.40
2022-08-25T07:41:42.052Z,21.50
2022-08-25T07:44:11.149Z,21.60
2022-08-25T07:46:38.634Z,21.80
2022-08-25T07:49:16.428Z,21.90
2022-08-25T07:52:04.297Z,22.00
2022-08-25T07:54:34.123Z,22.00
2022-08-25T07:57:02.173Z,22.10
2022-08-25T07:59:29.280Z,21.90
2022-08-25T08:01:56.108Z,22.10
2022-08-25T08:04:22.838Z,22.40
2022-08-25T08:06:49.543Z,22.60
2022-08-25T08:09:16.695Z,22.90
2022-08-25T08:11:53.876Z,22.90
2022-08-25T08:14:21.285Z,22.90
2022-08-25T08:16:47.993Z,23.20
2022-08-25T08:19:15.641Z,23.50
2022-08-25T08:21:42.768Z,23.70
2022-08-25T08:24:24.873Z,24.00
2022-08-25T08:26:58.982Z,24.10
2022-08-25T08:29:26.840Z,24.70
2022-08-25T08:31:53.767Z,25.30
2022-08-25T08:34:24.773Z,26.00
2022-08-25T08:36:52.411Z,27.00
2022-08-25T08:39:19.191Z,27.70
2022-08-25T08:42:25.196Z,28.30
2022-08-25T08:44:57.021Z,29.10
2022-08-25T08:47:56.087Z,29.90
2022-08-25T08:50:38.957Z,31.50
2022-08-25T08:53:15.234Z,33.10
2022-08-25T08:56:05.968Z,34.00
2022-08-25T08:58:46.236Z,34.90
2022-08-25T09:01:30.874Z,35.80
2022-08-25T09:04:24.393Z,36.20
2022-08-25T09:06:51.741Z,36.90
2022-08-25T09:09:26.487Z,36.50
2022-08-25T09:12:01.080Z,36.80
2022-08-25T09:14:53.886Z,37.30
2022-08-25T09:17:42.074Z,38.00
2022-08-25T09:20:23.870Z,37.80
2022-08-25T09:23:12.741Z,38.50
2022-08-25T09:26:20.978Z,37.80
2022-08-25T09:28:55.173Z,38.20
2022-08-25T09:31:34.146Z,38.90
2022-08-25T09:34:03.677Z,38.70
2022-08-25T09:36:35.500Z,38.90
2022-08-25T09:39:06.619Z,39.60
2022-08-25T09:41:47.593Z,40.00
2022-08-25T09:44:24.567Z,40.00
2022-08-25T09:47:02.369Z,39.70
2022-08-25T09:50:00.710Z,38.90
2022-08-25T09:52:33.438Z,39.30
2022-08-25T09:55:05.629Z,40.30
2022-08-25T09:57:34.512Z,40.80
2022-08-25T10:00:12.875Z,40.70
2022-08-25T10:02:39.963Z,39.20
2022-08-25T10:05:23.835Z,38.70
2022-08-25T10:07:57.660Z,38.40
2022-08-25T10:10:45.689Z,38.80
2022-08-25T10:13:22.757Z,39.90
2022-08-25T10:16:24.581Z,40.30
2022-08-25T10:19:10.019Z,39.80
2022-08-25T10:21:40.619Z,39.10
2022-08-25T10:24:10.071Z,40.20
2022-08-25T10:26:55.361Z,40.70
2022-08-25T10:29:31.200Z,40.90
2022-08-25T10:32:05.617Z,40.20
2022-08-25T10:34:52.058Z,39.30
2022-08-25T10:37:36.285Z,39.30
2022-08-25T10:40:23.429Z,39.90
2022-08-25T10:43:07.915Z,40.60
2022-08-25T10:45:54.191Z,39.60
2022-08-25T10:48:49.734Z,38.90
2022-08-25T10:51:25.753Z,38.60
2022-08-25T10:54:07.650Z,38.30
2022-08-25T10:56:40.173Z,39.10
2022-08-25T10:59:19.894Z,39.60
2022-08-25T11:02:11.855Z,40.00
2022-08-25T11:05:05.532Z,39.10
2022-08-25T11:07:42.722Z,39.10
2022-08-25T11:10:22.012Z,39.60
2022-08-25T11:12:54.656Z,40.10
2022-08-25T11:15:28.813Z,40.80
2022-08-25T11:18:15.232Z,41.70
2022-08-25T11:21:12.086Z,42.50
2022-08-25T11:23:46.722Z,42.70
2022-08-25T11:26:17.366Z,42.60
2022-08-25T11:28:46.807Z,41.90
2022-08-25T11:31:15.601Z,41.50
2022-08-25T11:33:43.718Z,40.70
2022-08-25T11:36:30.278Z,40.00
2022-08-25T11:39:45.191Z,39.90
2022-08-25T11:42:30.550Z,39.80
2022-08-25T11:45:12.429Z,39.70
2022-08-25T11:48:09.970Z,39.50
2022-08-25T11:50:54.930Z,39.60
2022-08-25T11:53:42.558Z,40.00
2022-08-25T11:56:33.063Z,40.00
2022-08-25T11:59:01.565Z,39.90
2022-08-25T12:01:40.403Z,40.00
2022-08-25T12:04:45.264Z,39.90
2022-08-25T12:07:16.741Z,38.90
2022-08-25T12:09:53.769Z,38.20
2022-08-25T12:12:45.435Z,37.80
2022-08-25T12:15:31.260Z,37.50
2022-08-25T12:18:15.395Z,37.40
2022-08-25T12:20:54.888Z,37.20
2022-08-25T12:23:29.826Z,37.40
2022-08-25T12:26:02.610Z,37.70
2022-08-25T12:28:50.330Z,37.50
2022-08-25T12:31:47.612Z,36.90
2022-08-25T12:34:33.282Z,36.50
2022-08-25T12:37:13.166Z,36.70
2022-08-25T12:40:06.539Z,36.80
2022-08-25T12:42:40.817Z,37.00
2022-08-25T12:45:25.452Z,36.80
2022-08-25T12:47:54.622Z,36.50
2022-08-25T12:50:41.276Z,36.50
2022-08-25T12:53:25.343Z,36.70
2022-08-25T12:55:57.682Z,36.10
2022-08-25T12:58:59.827Z,35.70
2022-08-25T13:01:47.018Z,35.50
2022-08-25T13:04:16.742Z,34.90
2022-08-25T13:07:04.547Z,34.90
2022-08-25T13:10:07.372Z,35.20
2022-08-25T13:12:44.334Z,35.50
2022-08-25T13:15:26.248Z,35.60
2022-08-25T13:17:52.973Z,35.40
2022-08-25T13:20:29.152Z,35.50
2022-08-25T13:22:59.829Z,35.50
2022-08-25T13:25:32.760Z,35.00
2022-08-25T13:28:03.121Z,34.90
2022-08-25T13:30:35.767Z,35.10
2022-08-25T13:33:22.070Z,35.20
2022-08-25T13:36:11.695Z,35.00
2022-08-25T13:38:39.264Z,35.40
2022-08-25T13:41:09.294Z,36.00
2022-08-25T13:43:38.109Z,36.30
2022-08-25T13:46:05.897Z,36.10
2022-08-25T13:48:49.805Z,35.50
2022-08-25T13:51:31.374Z,35.30
2022-08-25T13:54:02.683Z,35.50
2022-08-25T13:56:40.918Z,35.40
2022-08-25T13:59:26.098Z,35.80
2022-08-25T14:01:54.785Z,36.40
2022-08-25T14:04:31.230Z,36.60
2022-08-25T14:07:23.134Z,36.80
2022-08-25T14:10:00.099Z,36.90
2022-08-25T14:12:33.689Z,36.60
2022-08-25T14:15:32.153Z,36.20
2022-08-25T14:18:26.909Z,35.80
2022-08-25T14:20:56.371Z,35.70
2022-08-25T14:23:30.630Z,35.20
2022-08-25T14:25:58.402Z,35.30
2022-08-25T14:28:31.986Z,35.10
2022-08-25T14:31:05.323Z,35.00
2022-08-25T14:33:54.533Z,35.10
2022-08-25T14:36:21.317Z,35.30
2022-08-25T14:38:55.018Z,35.30
2022-08-25T14:41:23.914Z,35.10
2022-08-25T14:43:50.753Z,35.00
2022-08-25T14:46:21.384Z,34.60
2022-08-25T14:48:54.306Z,34.30
2022-08-25T14:51:23.942Z,34.30
2022-08-25T14:53:53.845Z,34.50
2022-08-25T14:56:20.601Z,34.40
2022-08-25T14:58:50.957Z,33.80
2022-08-25T15:01:28.480Z,33.30
2022-08-25T15:04:02.429Z,33.30
2022-08-25T15:06:30.028Z,33.30
2022-08-25T15:09:11.046Z,33.30
2022-08-25T15:11:44.426Z,33.40
2022-08-25T15:14:13.138Z,33.50
2022-08-25T15:16:46.639Z,33.70
2022-08-25T15:19:16.176Z,34.10
2022-08-25T15:21:44.506Z,34.30
2022-08-25T15:24:13.197Z,34.30
2022-08-25T15:29:26.238Z,34.20
2022-08-25T15:31:53.373Z,33.70
2022-08-25T15:34:20.175Z,33.30
2022-08-25T15:36:47.527Z,32.90
2022-08-25T15:39:14.834Z,32.70
2022-08-25T15:41:45.997Z,32.50
2022-08-25T15:44:16.465Z,32.10
2022-08-25T15:46:47.196Z,31.90
2022-08-25T15:49:23.081Z,32.00
2022-08-25T15:51:52.349Z,32.00
2022-08-25T15:54:20.655Z,31.80
2022-08-25T15:56:47.773Z,31.70
2022-08-25T15:59:15.352Z,31.80
2022-08-25T16:01:43.682Z,31.70
2022-08-25T16:04:11.894Z,31.60
2022-08-25T16:06:39.275Z,31.50
2022-08-25T16:09:07.417Z,31.40
2022-08-25T16:11:35.254Z,31.60
2022-08-25T16:14:06.398Z,31.80
2022-08-25T16:16:33.401Z,32.00
2022-08-25T16:19:00.566Z,32.10
2022-08-25T16:21:33.430Z,32.10
2022-08-25T16:24:07.458Z,32.30
2022-08-25T16:26:36.425Z,32.40
2022-08-25T16:29:06.404Z,32.10
2022-08-25T16:31:33.416Z,32.00
2022-08-25T16:34:01.487Z,32.20
2022-08-25T16:36:28.972Z,32.20
2022-08-25T16:38:57.572Z,32.20
2022-08-25T16:41:34.063Z,32.10
2022-08-25T16:44:11.195Z,31.80
2022-08-25T16:46:40.778Z,31.70
2022-08-25T16:49:07.970Z,31.60
2022-08-25T16:51:35.909Z,31.30
2022-08-25T16:54:22.382Z,31.00
2022-08-25T16:56:53.715Z,30.90
2022-08-25T16:59:23.538Z,30.60
2022-08-25T17:01:51.544Z,30.50
2022-08-25T17:04:18.654Z,30.30
2022-08-25T17:06:49.656Z,30.20
2022-08-25T17:09:23.968Z,30.10
2022-08-25T17:11:54.121Z,29.90
2022-08-25T17:14:21.218Z,29.70
2022-08-25T17:16:48.602Z,29.60
2022-08-25T17:19:17.626Z,29.60
2022-08-25T17:21:48.454Z,29.50
2022-08-25T17:24:17.136Z,29.30
2022-08-25T17:26:46.328Z,29.20
2022-08-25T17:29:13.157Z,29.10
2022-08-25T17:31:40.401Z,28.90
2022-08-25T17:34:09.402Z,28.80
2022-08-25T17:36:36.616Z,28.70
2022-08-25T17:39:04.175Z,28.60
2022-08-25T17:41:33.182Z,28.50
2022-08-25T17:44:04.807Z,28.40
2022-08-25T17:46:32.086Z,28.10
2022-08-25T17:48:59.030Z,28.00
2022-08-25T17:51:25.836Z,28.00
2022-08-25T17:53:53.026Z,28.00
2022-08-25T17:56:22.206Z,27.80
2022-08-25T17:58:50.065Z,27.60
2022-08-25T18:01:40.273Z,27.40
2022-08-25T18:04:15.627Z,27.30
2022-08-25T18:06:45.980Z,27.10
2022-08-25T18:09:13.445Z,27.00
2022-08-25T18:11:40.158Z,26.80
2022-08-25T18:14:07.772Z,26.70
2022-08-25T18:16:37.593Z,26.50
2022-08-25T18:19:04.377Z,26.40
2022-08-25T18:21:36.206Z,26.40
2022-08-25T18:24:03.248Z,26.40
2022-08-25T18:26:30.389Z,26.50
2022-08-25T18:28:58.666Z,26.50
2022-08-25T18:31:25.763Z,26.50
2022-08-25T18:33:52.509Z,26.50
2022-08-25T18:36:21.047Z,26.40
2022-08-25T18:39:06.581Z,26.20
2022-08-25T18:41:36.638Z,26.10
2022-08-25T18:44:04.907Z,25.80
2022-08-25T18:46:31.776Z,25.80
2022-08-25T18:49:00.622Z,25.80
2022-08-25T18:51:27.542Z,25.70
2022-08-25T18:53:59.070Z,25.60
2022-08-25T18:56:27.942Z,25.50
2022-08-25T18:58:54.673Z,25.40
2022-08-25T19:01:21.599Z,25.30
2022-08-25T19:03:49.668Z,25.20
2022-08-25T19:06:17.534Z,25.10
2022-08-25T19:08:46.381Z,24.90
2022-08-25T19:11:13.269Z,24.80
2022-08-25T19:13:40.522Z,24.80
2022-08-25T19:16:20.452Z,24.80
2022-08-25T19:18:49.055Z,24.70
2022-08-25T19:21:22.648Z,24.40
2022-08-25T19:23:50.725Z,24.30
2022-08-25T19:26:18.350Z,24.20
2022-08-25T19:28:48.951Z,24.20
2022-08-25T19:31:23.400Z,24.10
2022-08-25T19:33:52.924Z,24.10
2022-08-25T19:36:23.360Z,24.00
2022-08-25T19:38:58.206Z,23.80
2022-08-25T19:41:26.094Z,23.80
2022-08-25T19:43:55.447Z,23.70
2022-08-25T19:46:35.609Z,23.60
2022-08-25T19:49:08.755Z,23.60
2022-08-25T19:51:44.277Z,23.60
2022-08-25T19:54:17.163Z,23.50
2022-08-25T19:56:54.538Z,23.50
2022-08-25T19:59:40.737Z,23.40
2022-08-25T20:02:12.775Z,23.50
2022-08-25T20:04:47.934Z,23.40
2022-08-25T20:07:19.230Z,23.40
2022-08-25T20:09:45.996Z,23.30
2022-08-25T20:14:45.150Z,23.20
2022-08-25T20:17:14.467Z,23.10
2022-08-25T20:19:52.328Z,22.90
2022-08-25T20:22:19.995Z,22.90
2022-08-25T20:24:51.034Z,22.90
2022-08-25T20:27:24.617Z,22.80
2022-08-25T20:29:52.610Z,22.70
2022-08-25T20:32:19.573Z,22.50
2022-08-25T20:34:47.215Z,22.40
2022-08-25T20:37:14.445Z,22.20
2022-08-25T20:39:42.107Z,22.20
2022-08-25T20:42:09.066Z,22.30
2022-08-25T20:44:41.797Z,22.30
2022-08-25T20:47:12.815Z,22.30
2022-08-25T20:49:39.926Z,22.30
2022-08-25T20:52:07.877Z,22.30
2022-08-25T20:54:34.666Z,22.30
2022-08-25T20:57:02.573Z,22.20
2022-08-25T20:59:29.577Z,22.10
2022-08-25T21:01:56.641Z,22.00
2022-08-25T21:04:26.701Z,22.00
2022-08-25T21:06:53.494Z,21.90
2022-08-25T21:09:22.960Z,21.80
2022-08-25T21:11:53.228Z,21.80
2022-08-25T21:14:21.145Z,21.70
2022-08-25T21:16:49.072Z,21.60
2022-08-25T21:19:26.756Z,21.50
2022-08-25T21:21:59.613Z,21.50
2022-08-25T21:24:27.558Z,21.60
2022-08-25T21:26:56.739Z,21.70
2022-08-25T21:29:25.950Z,21.70
2022-08-25T21:31:58.752Z,21.70
2022-08-25T21:34:28.191Z,21.70
2022-08-25T21:36:57.720Z,21.60
2022-08-25T21:39:29.687Z,21.60
2022-08-25T21:41:59.904Z,21.60
2022-08-25T21:44:27.276Z,21.60
2022-08-25T21:46:54.803Z,21.50
2022-08-25T21:49:23.152Z,21.40
2022-08-25T21:52:02.254Z,21.30
2022-08-25T21:54:30.597Z,21.10
2022-08-25T21:57:02.564Z,20.90
2022-08-25T21:59:34.738Z,20.80
2022-08-25T22:02:04.741Z,20.80
2022-08-25T22:04:33.358Z,20.90
2022-08-25T22:07:00.533Z,21.00
2022-08-25T22:09:28.572Z,21.00
2022-08-25T22:11:55.777Z,21.10
2022-08-25T22:14:23.455Z,21.10
2022-08-25T22:16:51.875Z,21.10
2022-08-25T22:19:18.802Z,21.00
2022-08-25T22:21:45.763Z,20.90
2022-08-25T22:24:12.594Z,21.00
2022-08-25T22:26:40.162Z,21.00
2022-08-25T22:29:07.601Z,20.90
2022-08-25T22:31:35.618Z,20.90
2022-08-25T22:34:02.889Z,21.00
2022-08-25T22:36:33.542Z,20.90
2022-08-25T22:39:00.698Z,20.90
2022-08-25T22:41:29.549Z,20.90
2022-08-25T22:43:56.932Z,20.80
2022-08-25T22:46:27.831Z,20.80
2022-08-25T22:48:56.268Z,20.70
2022-08-25T22:51:38.212Z,20.40
2022-08-25T22:54:05.245Z,20.30
2022-08-25T22:56:38.865Z,20.40
2022-08-25T22:59:08.987Z,20.50
